Brighton, CO

7:01 PM MDT on September 18, 2014 (GMT -0600)
Brighton East Farms | Change Station
CLOSE
Current Station
Personal Weather Station
Location: Brighton, CO
Elevation: 5145 ft
Nearby Weather Stations

Elev 5145 ft 40.00 °N, 104.76 °W | Updated 1 second ago

Clear
Clear
82.0 °F
Feels Like 80 °F
N
8.3
Wind Variable Wind from SSW
Gusts 12.1 mph

Today
High -- | Low -- °F
--% Chance of Precip.
Yesterday
High -- | Low -- °F
Precip. -- in
6:42 AM 7:02 PM
Waning Crescent, 23% visible
Pressure 29.73 in
Visibility 10.0 miles
Clouds Few 15000 ft
Heat Index 80 °F
Dew Point 32 °F
Humidity 16%
Rainfall 0.00 in
Snow Depth 6 in , 0 in , 0 in
UV 0 out of 12
Pollen 7.70 out of 12
Ozone Good
PM2.5 Good
Flu Activity Not available.
METAR KDEN 190053Z 16010KT 10SM FEW150 25/02 A2994 RMK AO2 SLP065 T02500017 $

More Conditions Fewer Conditions

Pressure 29.73 in
Visibility 10.0 miles
Clouds Few 15000 ft
Heat Index 80 °F
Dew Point 32 °F
Humidity 16%
Rainfall 0.00 in
Snow Depth 6 in , 0 in , 0 in
UV 0 out of 12
Pollen 7.70 out of 12
Ozone Good
PM2.5 Good
Flu Activity Not available.
METAR KDEN 190053Z 16010KT 10SM FEW150 25/02 A2994 RMK AO2 SLP065 T02500017 $

More Conditions Fewer Conditions

10-Day Weather Forecast

Almanac

Astronomy

Sep. 18, 2014 Rise Set
Actual Time 6:42 AM MDT 7:02 PM MDT
Civil Twilight 6:15 AM MDT 7:29 PM MDT
Nautical Twilight 5:44 AM MDT 8:01 PM MDT
Astronomical Twilight 5:11 AM MDT 8:33 PM MDT
Moon 1:37 AM MDT (9/18) 3:55 PM MDT (9/18)
Length of Visible Light 13h 13m
Length of Day
12h 19m
Tomorrow will be 2m 36s shorter.
Waning Crescent, 23% of the Moon is Illuminated
Today
Waning Crescent
Sep 24
New
Oct 1
First Quarter
Oct 8
Full
Oct 15
Last Quarter

Today's Extremes

State Highs State Lows

Community

WunderPhotos

Upload Photos

1,754,509 photos uploaded!

Nearby

Air Quality

  Air Quality AQ Index Pollutant
Yesterday Good
OZONE
Yesterday Good
PM10
Current Good
OZONE
Current Good
PM2.5
Thursday Moderate
OZONE
Thursday Good
PM2.5
Friday Moderate
OZONE
Friday Good
PM2.5

Snow Depth

Station Depth Elevation
Mancos 6 in 10000 ft
Ivanhoe 0 in 10400 ft
Vallecito 0 in 10880 ft
Lake Irene 0 in 10700 ft
Independence Pass 187 in 10600 ft

Earthquake Activity

City Distance Mag. Time & Date
No recent earthquake activity has been reported nearby.
Minimum magnitude displayed is 2.5.

Coastal Water Temperatures

Place Temperature
No Stations Reporting

Nearby Weather Stations